Time;durP1;ratioP1;P1;durP2;ratioP2;P2;SDS_P1;SDS_P2;PMS_P1;PMS_P2;Temp;Humidity;BMP_temperature;BMP_pressure;BME280_temperature;BME280_humidity;BME280_pressure;Samples;Min_cycle;Max_cycle;Signal;HPM_P1;HPM_P2
2024/01/06 00:01:47;;;;;;;3.38;1.60;;;4.20;99.90;;;3.27;100.00;96031.88;4972296;28;20053;-37
2024/01/06 00:04:12;;;;;;;5.75;1.58;;;4.10;99.90;;;3.30;100.00;96042.22;4967966;28;20096;-37
2024/01/06 00:06:38;;;;;;;2.90;1.40;;;4.10;99.90;;;3.28;100.00;96046.63;4972829;28;20065;-38
2024/01/06 00:09:04;;;;;;;3.05;1.30;;;4.10;99.90;;;3.28;100.00;96054.47;4975819;28;20038;-37
2024/01/06 00:11:29;;;;;;;4.45;1.33;;;4.10;99.90;;;3.28;100.00;96047.47;4971113;28;20518;-37
2024/01/06 00:13:55;;;;;;;5.57;1.42;;;4.10;99.90;;;3.30;100.00;96043.06;4969177;28;20041;-37
2024/01/06 00:16:21;;;;;;;4.78;1.60;;;4.10;99.90;;;3.32;100.00;96045.63;4972635;28;20441;-36
2024/01/06 00:18:47;;;;;;;5.20;1.50;;;4.20;99.90;;;3.28;100.00;96044.03;4976503;28;20034;-37
2024/01/06 00:21:13;;;;;;;4.05;1.50;;;4.10;99.90;;;3.36;100.00;96055.09;4974969;28;20042;-37
2024/01/06 00:23:42;;;;;;;4.78;1.50;;;4.20;99.90;;;3.37;100.00;96055.03;4976017;28;20031;-36
2024/01/06 00:26:09;;;;;;;5.03;1.58;;;4.20;99.90;;;3.40;100.00;96054.09;4969455;28;20085;-37
2024/01/06 00:28:35;;;;;;;4.40;1.20;;;4.20;99.90;;;3.43;100.00;96054.84;4972584;28;20066;-37
2024/01/06 00:31:01;;;;;;;5.03;1.27;;;4.20;99.90;;;3.39;100.00;96047.16;4976267;28;20307;-37
2024/01/06 00:33:26;;;;;;;4.90;1.17;;;4.30;99.90;;;3.34;100.00;96043.84;4974407;28;20410;-37
2024/01/06 00:35:52;;;;;;;2.00;1.10;;;4.30;99.90;;;3.49;100.00;96058.19;4970270;28;20038;-37
2024/01/06 00:38:18;;;;;;;3.90;1.08;;;4.30;99.90;;;3.52;100.00;96065.91;4971909;28;20420;-37
2024/01/06 00:40:44;;;;;;;3.90;1.13;;;4.30;99.90;;;3.54;100.00;96071.94;4973728;28;20372;-37
2024/01/06 00:43:10;;;;;;;3.10;1.35;;;4.30;99.90;;;3.54;100.00;96056.28;4975837;28;20510;-37
2024/01/06 00:45:35;;;;;;;2.75;1.10;;;4.30;99.90;;;3.51;100.00;96052.00;4968992;28;20030;-37
2024/01/06 00:48:01;;;;;;;2.15;0.95;;;4.40;99.90;;;3.61;100.00;96063.88;4975616;28;20038;-37
2024/01/06 00:50:27;;;;;;;1.50;0.80;;;4.40;99.90;;;3.64;100.00;96065.50;4975274;28;20222;-37
2024/01/06 00:52:52;;;;;;;6.03;1.20;;;4.40;99.90;;;3.68;100.00;96071.47;4975620;28;20034;-37
2024/01/06 00:55:19;;;;;;;2.17;0.98;;;4.40;99.90;;;3.72;100.00;96075.72;4972601;28;20034;-37
2024/01/06 00:57:45;;;;;;;4.45;1.10;;;4.50;99.90;;;3.71;100.00;96068.78;4973553;28;20034;-37
2024/01/06 01:00:12;;;;;;;2.13;1.00;;;4.50;99.90;;;3.54;100.00;96041.50;4974337;28;20038;-37
2024/01/06 01:02:38;;;;;;;1.85;0.95;;;4.50;99.90;;;3.78;100.00;96084.19;4969211;28;20030;-37
2024/01/06 01:05:04;;;;;;;3.78;1.48;;;4.60;99.90;;;3.80;100.00;96085.03;4968336;28;20294;-37
2024/01/06 01:07:30;;;;;;;7.35;1.35;;;4.60;99.90;;;3.72;100.00;96079.19;4976277;28;20039;-37
2024/01/06 01:09:56;;;;;;;2.63;1.00;;;4.60;99.90;;;3.79;100.00;96087.66;4969830;28;20045;-37
2024/01/06 01:12:23;;;;;;;4.43;1.02;;;4.60;99.90;;;3.78;100.00;96086.78;4972419;28;20027;-37
2024/01/06 01:14:50;;;;;;;2.50;0.93;;;4.60;99.90;;;3.69;100.00;96078.41;4971584;28;20030;-37
2024/01/06 01:17:16;;;;;;;6.50;1.02;;;4.60;99.90;;;3.76;100.00;96093.81;4972797;28;20499;-37
2024/01/06 01:19:42;;;;;;;3.88;1.00;;;4.50;99.90;;;3.75;100.00;96091.25;4973643;28;20066;-38
2024/01/06 01:22:07;;;;;;;5.63;1.10;;;4.50;99.90;;;3.72;100.00;96097.44;4972472;28;20117;-38
2024/01/06 01:24:33;;;;;;;4.13;0.93;;;4.50;99.90;;;3.72;100.00;96104.41;4970818;28;25381;-38
2024/01/06 01:26:59;;;;;;;3.38;1.08;;;4.50;99.90;;;3.67;100.00;96099.31;4973928;28;20038;-37
2024/01/06 01:29:25;;;;;;;4.72;1.08;;;4.50;99.90;;;3.70;100.00;96098.38;4968086;28;20022;-37
2024/01/06 01:31:50;;;;;;;4.25;0.95;;;4.50;99.90;;;3.68;100.00;96101.03;4970906;28;20352;-38
2024/01/06 01:34:16;;;;;;;5.93;0.82;;;4.50;99.90;;;3.63;100.00;96098.56;4972148;28;20121;-37
2024/01/06 01:36:42;;;;;;;3.35;0.82;;;4.50;99.90;;;3.62;100.00;96106.41;4973963;28;20038;-37
2024/01/06 01:39:07;;;;;;;5.05;0.88;;;4.50;99.90;;;3.63;100.00;96110.75;4974549;28;20399;-37
2024/01/06 01:41:33;;;;;;;3.78;1.05;;;4.50;99.90;;;3.65;100.00;96102.88;4972699;28;20038;-37
2024/01/06 01:43:59;;;;;;;4.82;1.05;;;4.50;99.90;;;3.69;100.00;96114.91;4971417;28;20034;-37
2024/01/06 01:46:27;;;;;;;3.63;1.08;;;4.50;99.90;;;3.60;100.00;96098.63;4971526;28;20464;-37
2024/01/06 01:48:55;;;;;;;5.50;0.95;;;4.50;99.90;;;3.70;100.00;96114.88;4972954;28;20022;-38
2024/01/06 01:51:21;;;;;;;3.25;0.80;;;4.50;99.90;;;3.67;100.00;96112.34;4966842;28;20519;-37
2024/01/06 01:53:48;;;;;;;7.72;1.05;;;4.50;99.90;;;3.69;100.00;96107.09;4974540;28;20569;-37
2024/01/06 01:56:15;;;;;;;5.38;0.90;;;4.50;99.90;;;3.80;100.00;96120.66;4973806;28;20458;-37
2024/01/06 01:58:41;;;;;;;2.88;0.85;;;4.60;99.90;;;3.79;100.00;96122.41;4969781;28;20038;-38
2024/01/06 02:01:08;;;;;;;5.10;0.73;;;4.60;99.90;;;3.82;100.00;96129.28;4970096;28;20483;-37
2024/01/06 02:03:35;;;;;;;4.15;1.13;;;4.60;99.90;;;3.83;100.00;96128.38;4974823;28;20038;-37
2024/01/06 02:06:01;;;;;;;3.25;1.17;;;4.60;99.90;;;3.83;100.00;96128.38;4975422;28;20290;-37
2024/01/06 02:08:27;;;;;;;7.75;1.02;;;4.60;99.90;;;3.86;100.00;96128.31;4972211;28;20026;-37
2024/01/06 02:10:56;;;;;;;1.10;0.80;;;4.60;99.90;;;3.90;100.00;96137.72;4973169;28;20034;-37
2024/01/06 02:13:24;;;;;;;6.50;1.00;;;4.60;99.90;;;3.89;100.00;96133.41;4972500;28;20034;-37
2024/01/06 02:15:49;;;;;;;2.08;0.80;;;4.60;99.90;;;3.91;100.00;96129.03;4971756;28;20052;-38
2024/01/06 02:18:16;;;;;;;7.68;0.90;;;4.70;99.90;;;3.92;100.00;96141.16;4975110;28;20510;-38
2024/01/06 02:20:47;;;;;;;3.75;0.60;;;4.60;99.90;;;3.92;100.00;96141.16;4971462;28;20042;-37
2024/01/06 02:23:13;;;;;;;1.92;0.70;;;4.70;99.90;;;3.91;100.00;96142.06;4983373;23;24016;-38
2024/01/06 02:25:39;;;;;;;1.50;0.52;;;4.70;99.90;;;3.92;100.00;96146.34;4933007;28;20084;-38
2024/01/06 02:28:04;;;;;;;7.13;0.95;;;4.70;99.90;;;3.99;100.00;96147.03;4935623;28;20058;-39
2024/01/06 02:30:30;;;;;;;2.58;0.95;;;4.70;99.90;;;3.91;100.00;96134.25;4930099;28;20063;-38
2024/01/06 02:32:56;;;;;;;4.93;0.65;;;4.70;99.90;;;3.96;100.00;96147.97;4933740;28;20057;-38
2024/01/06 02:35:21;;;;;;;4.22;0.90;;;4.70;99.90;;;3.94;100.00;96155.00;4933345;28;20035;-38
2024/01/06 02:37:47;;;;;;;2.83;0.60;;;4.70;99.90;;;3.89;100.00;96156.03;4937649;28;20054;-38
2024/01/06 02:40:13;;;;;;;1.20;0.77;;;4.70;99.90;;;3.86;100.00;96159.59;4937814;28;20039;-38
2024/01/06 02:42:39;;;;;;;4.50;1.08;;;4.60;99.90;;;3.83;100.00;96154.47;4933677;28;20035;-38
2024/01/06 02:45:07;;;;;;;3.08;1.10;;;4.60;99.90;;;3.78;100.00;96153.75;4929591;28;20048;-38
2024/01/06 02:47:32;;;;;;;3.15;1.00;;;4.60;99.90;;;3.72;100.00;96160.00;4934098;28;20165;-38
2024/01/06 02:49:58;;;;;;;2.90;0.90;;;4.50;99.90;;;3.67;100.00;96148.84;4934153;28;20488;-38
2024/01/06 02:52:24;;;;;;;3.58;1.10;;;4.50;99.90;;;3.68;100.00;96147.09;4934732;28;20041;-38
2024/01/06 02:54:49;;;;;;;3.03;0.88;;;4.40;99.90;;;3.65;100.00;96153.25;4934433;28;20054;-38
2024/01/06 02:57:15;;;;;;;6.10;0.90;;;4.50;99.90;;;3.63;100.00;96157.69;4934336;28;20050;-36
2024/01/06 02:59:41;;;;;;;2.10;0.80;;;4.40;99.90;;;3.61;100.00;96157.72;4935520;28;20404;-36
2024/01/06 03:02:07;;;;;;;3.47;0.70;;;4.40;99.90;;;3.59;100.00;96159.53;4939990;28;20483;-37
2024/01/06 03:04:32;;;;;;;5.85;0.82;;;4.40;99.90;;;3.63;100.00;96168.94;4936375;28;20514;-37
2024/01/06 03:06:58;;;;;;;4.80;1.00;;;4.40;99.90;;;3.65;100.00;96170.66;4940111;28;20035;-37
2024/01/06 03:09:24;;;;;;;2.10;0.73;;;4.40;99.90;;;3.60;100.00;96163.81;4939367;28;20031;-38
2024/01/06 03:11:49;;;;;;;3.47;0.93;;;4.40;99.90;;;3.61;100.00;96152.50;4933074;28;20027;-37
2024/01/06 03:14:15;;;;;;;3.95;1.02;;;4.40;99.90;;;3.63;100.00;96160.28;4938424;28;20318;-38
2024/01/06 03:16:41;;;;;;;3.45;0.93;;;4.40;99.90;;;3.49;100.00;96141.59;4937910;28;23029;-37
2024/01/06 03:19:07;;;;;;;6.10;0.90;;;4.40;99.90;;;3.58;100.00;96160.41;4940241;28;20035;-37
2024/01/06 03:21:33;;;;;;;0.98;0.60;;;4.30;99.90;;;3.53;100.00;96164.88;4938084;28;20167;-37
2024/01/06 03:23:58;;;;;;;3.88;0.98;;;4.30;99.90;;;3.50;100.00;96162.41;4939485;28;20114;-37
2024/01/06 03:26:24;;;;;;;5.72;1.08;;;4.30;99.90;;;3.48;100.00;96163.31;4936525;28;20035;-37
2024/01/06 03:28:50;;;;;;;1.95;1.00;;;4.20;99.90;;;3.48;100.00;96160.72;4935049;28;20498;-38
2024/01/06 03:31:16;;;;;;;3.72;0.70;;;4.30;99.90;;;3.48;100.00;96163.31;4937958;28;20081;-38
2024/01/06 03:33:43;;;;;;;2.40;0.77;;;4.20;99.90;;;3.47;100.00;96159.03;4909662;28;20027;-38
2024/01/06 03:36:09;;;;;;;5.30;1.00;;;4.20;99.90;;;3.39;100.00;96140.97;4937906;28;22197;-38
2024/01/06 03:38:35;;;;;;;1.85;0.50;;;4.20;99.90;;;3.50;100.00;96156.31;4936626;28;20067;-37
2024/01/06 03:41:01;;;;;;;4.07;0.90;;;4.30;99.90;;;3.48;100.00;96155.50;4937456;28;20885;-38
2024/01/06 03:43:26;;;;;;;4.85;0.93;;;4.20;99.90;;;3.49;100.00;96149.41;4935359;28;20051;-38
2024/01/06 03:45:52;;;;;;;1.88;0.88;;;4.30;99.90;;;3.51;100.00;96145.84;4938900;28;20031;-39
2024/01/06 03:48:18;;;;;;;4.68;0.90;;;4.30;99.90;;;3.53;100.00;96153.63;4937151;28;20043;-38
2024/01/06 03:50:44;;;;;;;2.72;0.98;;;4.30;99.90;;;3.49;100.00;96146.78;4940158;28;20046;-38
2024/01/06 03:53:09;;;;;;;5.65;0.90;;;4.30;99.90;;;3.46;100.00;96139.91;4936990;28;20046;-38
2024/01/06 03:55:35;;;;;;;3.90;0.90;;;4.30;99.90;;;3.50;100.00;96149.38;4933605;28;20035;-38
2024/01/06 03:58:01;;;;;;;2.33;0.90;;;4.30;99.90;;;3.52;100.00;96157.16;4937328;28;20051;-38
2024/01/06 04:00:26;;;;;;;2.00;0.95;;;4.30;99.90;;;3.51;100.00;96155.41;4937047;28;20050;-38
2024/01/06 04:02:52;;;;;;;4.18;0.90;;;4.30;99.90;;;3.51;100.00;96161.47;4938617;28;20361;-38
2024/01/06 04:05:18;;;;;;;2.15;0.75;;;4.30;99.90;;;3.52;100.00;96163.19;4937577;28;20531;-38
2024/01/06 04:07:44;;;;;;;4.43;1.08;;;4.30;99.90;;;3.50;100.00;96146.75;4936144;28;20512;-38
2024/01/06 04:10:09;;;;;;;2.58;0.93;;;4.30;99.90;;;3.53;100.00;96157.06;4931688;28;20440;-38
2024/01/06 04:12:35;;;;;;;3.90;0.85;;;4.40;99.90;;;3.54;100.00;96163.16;4936895;28;20436;-37
2024/01/06 04:15:01;;;;;;;2.30;0.73;;;4.30;99.90;;;3.54;100.00;96164.00;4935397;28;20035;-37
2024/01/06 04:17:27;;;;;;;2.58;0.85;;;4.30;99.90;;;3.47;100.00;96156.41;4937470;28;20054;-38
2024/01/06 04:19:53;;;;;;;2.38;1.20;;;4.30;99.90;;;3.56;100.00;96171.78;4939816;28;20411;-38
2024/01/06 04:22:19;;;;;;;3.78;0.70;;;4.30;99.90;;;3.54;100.00;96166.63;4937907;28;20553;-38
2024/01/06 04:24:44;;;;;;;4.50;0.90;;;4.30;99.90;;;3.57;100.00;96169.13;4935836;28;20154;-38
2024/01/06 04:27:10;;;;;;;6.97;1.27;;;4.30;99.90;;;3.54;100.00;96169.22;4932997;28;20063;-38
2024/01/06 04:29:36;;;;;;;4.28;1.13;;;4.40;99.90;;;3.55;100.00;96180.50;4934520;28;20042;-38
2024/01/06 04:32:02;;;;;;;2.75;0.70;;;4.30;99.90;;;3.55;100.00;96178.75;4934887;28;20055;-38
2024/01/06 04:34:27;;;;;;;4.20;0.80;;;4.40;99.90;;;3.55;100.00;96176.16;4937209;28;20038;-38
2024/01/06 04:36:53;;;;;;;1.98;0.77;;;4.40;99.90;;;3.58;100.00;96181.25;4936678;28;20535;-38
2024/01/06 04:39:19;;;;;;;4.82;1.02;;;4.40;99.90;;;3.58;100.00;96183.03;4936390;28;20449;-38
2024/01/06 04:41:44;;;;;;;2.15;0.80;;;4.30;99.90;;;3.57;100.00;96176.97;4937475;28;20129;-38
2024/01/06 04:44:10;;;;;;;4.30;0.88;;;4.30;99.90;;;3.60;100.00;96182.06;4935551;28;20546;-38
2024/01/06 04:46:36;;;;;;;2.20;0.80;;;4.30;99.90;;;3.59;100.00;96176.91;4934237;28;20124;-38
2024/01/06 04:49:02;;;;;;;2.00;0.70;;;4.30;99.90;;;3.54;100.00;96169.22;4938358;28;20399;-38
2024/01/06 04:51:28;;;;;;;4.85;1.00;;;4.30;99.90;;;3.55;100.00;96178.75;4935610;28;20043;-38
2024/01/06 04:53:54;;;;;;;1.67;0.88;;;4.40;99.90;;;3.43;100.00;96168.69;4939332;28;20103;-38
2024/01/06 04:56:19;;;;;;;2.53;0.70;;;4.30;99.90;;;3.44;100.00;96170.38;4932718;28;20039;-38
2024/01/06 04:58:45;;;;;;;3.97;0.88;;;4.30;99.90;;;3.52;100.00;96181.44;4938321;28;20090;-38
2024/01/06 05:01:11;;;;;;;2.55;0.80;;;4.30;99.90;;;3.43;100.00;96177.34;4934151;28;20291;-38
2024/01/06 05:03:37;;;;;;;5.00;0.98;;;4.20;99.90;;;3.40;100.00;96177.44;4936357;28;20637;-38
2024/01/06 05:06:03;;;;;;;5.43;1.00;;;4.20;99.90;;;3.39;100.00;96186.16;4935123;28;20039;-38
2024/01/06 05:08:30;;;;;;;4.25;0.95;;;4.20;99.90;;;3.34;100.00;96181.94;4934528;28;20031;-38
2024/01/06 05:10:56;;;;;;;2.88;0.70;;;4.20;99.90;;;3.35;100.00;96192.31;4937033;28;20392;-37
2024/01/06 05:13:22;;;;;;;2.17;0.70;;;4.10;99.90;;;3.23;100.00;96184.84;4939161;28;20046;-37
2024/01/06 05:15:48;;;;;;;2.85;1.10;;;4.10;99.90;;;3.23;100.00;96198.75;4932892;28;20172;-37
2024/01/06 05:18:13;;;;;;;4.13;1.10;;;4.10;99.90;;;3.23;100.00;96197.88;4935413;28;20035;-37
2024/01/06 05:20:40;;;;;;;4.15;0.82;;;4.10;99.90;;;3.26;100.00;96197.81;4935362;28;21834;-37
2024/01/06 05:23:07;;;;;;;1.23;0.57;;;4.10;99.90;;;3.28;100.00;96203.81;4946941;28;20029;-37
2024/01/06 05:25:33;;;;;;;2.55;0.75;;;4.10;99.90;;;3.29;100.00;96196.88;4935753;28;20039;-37
2024/01/06 05:27:58;;;;;;;1.95;0.70;;;4.10;99.90;;;3.25;100.00;96194.34;4939561;28;20078;-37
2024/01/06 05:30:24;;;;;;;2.55;0.90;;;4.10;99.90;;;3.29;100.00;96209.91;4934604;28;20125;-37
2024/01/06 05:32:50;;;;;;;5.00;1.48;;;4.10;99.90;;;3.29;100.00;96209.91;4932357;28;20050;-37
2024/01/06 05:35:16;;;;;;;5.40;1.67;;;4.10;99.90;;;3.25;100.00;96207.38;4932311;28;20066;-38
2024/01/06 05:37:42;;;;;;;2.67;0.95;;;4.10;99.90;;;3.23;100.00;96209.16;4935803;28;20408;-38
2024/01/06 05:40:09;;;;;;;3.88;1.55;;;4.10;99.90;;;3.20;100.00;96209.25;4933600;28;20511;-38
2024/01/06 05:42:34;;;;;;;2.13;0.82;;;4.10;99.90;;;3.18;100.00;96215.41;4936921;28;20027;-38
2024/01/06 05:45:00;;;;;;;2.45;1.00;;;4.00;99.90;;;3.10;100.00;96204.31;4930921;28;20070;-38
2024/01/06 05:47:26;;;;;;;3.38;1.20;;;4.00;99.90;;;3.14;100.00;96212.03;4936875;28;20035;-38
2024/01/06 05:49:54;;;;;;;3.53;0.82;;;4.00;99.90;;;3.14;100.00;96225.06;4935972;28;20023;-37
2024/01/06 05:52:20;;;;;;;2.08;1.05;;;4.00;99.90;;;3.19;100.00;96223.16;4932619;28;20646;-37
2024/01/06 05:54:46;;;;;;;1.90;1.00;;;4.00;99.90;;;3.23;100.00;96222.19;4935840;28;20396;-37
2024/01/06 05:57:11;;;;;;;1.90;0.95;;;4.00;99.90;;;3.22;100.00;96222.22;4934013;28;20039;-37
2024/01/06 05:59:37;;;;;;;2.78;1.20;;;4.00;99.90;;;3.30;100.00;96235.06;4932859;28;20477;-37
2024/01/06 06:02:03;;;;;;;3.13;0.80;;;4.10;99.90;;;3.33;100.00;96232.38;4935329;28;20133;-37
2024/01/06 06:04:29;;;;;;;2.63;1.15;;;4.10;99.90;;;3.36;100.00;96240.13;4932453;28;20035;-37
2024/01/06 06:06:57;;;;;;;2.40;1.00;;;4.10;99.90;;;3.35;100.00;96252.25;4933374;28;20110;-38
2024/01/06 06:09:22;;;;;;;2.58;0.93;;;4.10;99.90;;;3.31;100.00;96247.19;4934587;28;20404;-38
2024/01/06 06:11:48;;;;;;;2.40;1.08;;;4.10;99.90;;;3.40;100.00;96258.22;4933841;28;20476;-38
2024/01/06 06:14:14;;;;;;;1.83;0.80;;;4.20;99.90;;;3.46;100.00;96267.63;4934128;28;20039;-38
2024/01/06 06:16:39;;;;;;;2.05;1.17;;;4.20;99.90;;;3.50;100.00;96261.44;4933424;28;20074;-39
2024/01/06 06:19:06;;;;;;;1.38;1.00;;;4.20;99.90;;;3.51;100.00;96267.50;4925270;28;20045;-38
2024/01/06 06:21:32;;;;;;;2.88;1.00;;;4.20;99.90;;;3.53;100.00;96266.56;4935814;28;20526;-39
2024/01/06 06:23:57;;;;;;;2.10;1.20;;;4.30;99.90;;;3.57;100.00;96262.13;4934687;28;20041;-38
2024/01/06 06:26:23;;;;;;;2.42;0.82;;;4.30;99.90;;;3.57;100.00;96263.00;4925449;28;20032;-38
2024/01/06 06:28:49;;;;;;;2.35;1.00;;;4.30;99.90;;;3.59;100.00;96266.41;4935066;28;20035;-38
2024/01/06 06:31:14;;;;;;;5.60;1.40;;;4.40;99.90;;;3.52;100.00;96264.88;4933703;28;20388;-38
2024/01/06 06:33:40;;;;;;;2.00;0.95;;;4.30;99.90;;;3.56;100.00;96276.06;4935996;28;20039;-38
2024/01/06 06:36:06;;;;;;;2.00;0.90;;;4.30;99.90;;;3.49;100.00;96266.69;4939050;28;20495;-38
2024/01/06 06:38:32;;;;;;;2.00;0.82;;;4.30;99.90;;;3.57;100.00;96280.34;4936283;28;20122;-39
2024/01/06 06:40:57;;;;;;;3.60;1.20;;;4.30;99.90;;;3.56;100.00;96286.50;4936150;28;20031;-36
2024/01/06 06:43:23;;;;;;;2.55;1.30;;;4.30;99.90;;;3.59;100.00;96291.63;4940307;28;20673;-36
2024/01/06 06:45:49;;;;;;;3.13;1.08;;;4.30;99.90;;;3.59;100.00;96281.19;4934214;28;20437;-38
2024/01/06 06:48:14;;;;;;;2.33;1.00;;;4.40;99.90;;;3.65;100.00;96283.63;4930691;28;20263;-37
2024/01/06 06:50:43;;;;;;;3.28;0.93;;;4.40;99.90;;;3.68;100.00;96296.59;4937490;28;20027;-37
2024/01/06 06:53:09;;;;;;;1.92;0.95;;;4.40;99.90;;;3.71;100.00;96300.84;4938724;28;20165;-37
2024/01/06 06:55:37;;;;;;;2.78;1.10;;;4.40;99.90;;;3.70;100.00;96294.78;4939336;28;20529;-37
2024/01/06 06:58:03;;;;;;;3.00;1.00;;;4.40;99.90;;;3.74;100.00;96306.00;4940109;28;20895;-37
2024/01/06 07:00:29;;;;;;;2.13;1.00;;;4.50;99.90;;;3.68;100.00;96295.72;4935468;28;20490;-37
2024/01/06 07:02:55;;;;;;;1.80;1.00;;;4.50;99.90;;;3.75;100.00;96300.75;4939055;28;20039;-37
2024/01/06 07:05:20;;;;;;;1.98;0.80;;;4.50;99.90;;;3.76;100.00;96315.47;4940820;28;20038;-37
2024/01/06 07:07:46;;;;;;;3.22;1.00;;;4.50;99.90;;;3.73;100.00;96304.25;4939627;28;20050;-36
2024/01/06 07:10:12;;;;;;;5.80;1.02;;;4.50;99.90;;;3.66;100.00;96298.38;4941900;28;20035;-37
2024/01/06 07:12:38;;;;;;;2.28;0.80;;;4.50;99.90;;;3.76;100.00;96317.22;4935500;28;20513;-37
2024/01/06 07:15:04;;;;;;;3.05;0.90;;;4.50;99.90;;;3.65;100.00;96301.88;4933633;28;20134;-37
2024/01/06 07:17:30;;;;;;;4.63;1.45;;;4.50;99.90;;;3.71;100.00;96317.34;4953546;28;20125;-37
2024/01/06 07:19:56;;;;;;;4.72;1.20;;;4.50;99.90;;;3.50;100.00;96289.25;4933820;28;20306;-37
2024/01/06 07:22:22;;;;;;;2.50;1.30;;;4.50;99.90;;;3.66;100.00;96318.38;4929953;28;20118;-37
2024/01/06 07:24:47;;;;;;;3.40;1.10;;;4.40;99.90;;;3.58;100.00;96305.53;4935496;28;20122;-38
2024/01/06 07:27:13;;;;;;;1.70;0.90;;;4.40;99.90;;;3.65;100.00;96327.09;4939168;28;20036;-36
2024/01/06 07:29:39;;;;;;;2.20;0.98;;;4.40;99.90;;;3.63;100.00;96327.13;4935974;28;20039;-37
2024/01/06 07:32:06;;;;;;;2.47;1.08;;;4.40;99.90;;;3.65;100.00;96330.56;4936046;28;20506;-37
2024/01/06 07:34:32;;;;;;;3.25;1.20;;;4.40;99.90;;;3.67;100.00;96326.16;4934985;28;20039;-37
2024/01/06 07:36:57;;;;;;;1.00;0.80;;;4.40;99.90;;;3.70;100.00;96326.09;4939058;28;20445;-37
2024/01/06 07:39:24;;;;;;;2.25;1.20;;;4.50;99.90;;;3.72;100.00;96332.09;4938844;28;20035;-37
2024/01/06 07:41:50;;;;;;;2.72;1.55;;;4.50;99.90;;;3.69;100.00;96318.28;4938992;28;20081;-37
2024/01/06 07:44:22;;;;;;;1.48;0.90;;;4.50;99.90;;;3.72;100.00;96334.72;4935379;28;20039;-37
2024/01/06 07:46:48;;;;;;;1.38;0.75;;;4.50;99.90;;;3.78;100.00;96331.06;4930548;28;20045;-37
2024/01/06 07:49:14;;;;;;;2.53;0.77;;;4.60;99.90;;;3.84;100.00;96328.31;4937923;28;20043;-37
2024/01/06 07:51:39;;;;;;;2.15;1.13;;;4.60;99.90;;;3.83;100.00;96329.22;4935565;28;20038;-37
2024/01/06 07:54:06;;;;;;;5.75;1.10;;;4.60;99.90;;;3.89;100.00;96326.41;4937743;28;20066;-37
2024/01/06 07:56:32;;;;;;;3.65;1.00;;;4.70;99.90;;;3.91;100.00;96327.25;4952272;28;20065;-37
2024/01/06 07:58:57;;;;;;;1.50;0.80;;;4.70;99.90;;;3.94;100.00;96331.50;4937139;28;20484;-37
2024/01/06 08:01:23;;;;;;;2.95;0.80;;;4.70;99.90;;;3.93;100.00;96330.66;4931198;28;20106;-37
2024/01/06 08:03:49;;;;;;;3.08;0.85;;;4.70;99.90;;;3.95;100.00;96334.09;4937233;28;20027;-37
2024/01/06 08:06:15;;;;;;;1.75;0.90;;;4.70;99.90;;;3.98;100.00;96339.22;4938015;28;20035;-37
2024/01/06 08:08:41;;;;;;;1.85;0.93;;;4.80;99.90;;;4.01;100.00;96343.50;4936580;28;20082;-35
2024/01/06 08:11:07;;;;;;;3.30;0.88;;;4.80;99.90;;;4.06;100.00;96339.00;4937122;28;20040;-35
2024/01/06 08:13:32;;;;;;;1.90;1.05;;;4.80;99.90;;;4.04;100.00;96338.19;4936672;28;20492;-36
2024/01/06 08:15:59;;;;;;;1.73;0.93;;;4.80;99.90;;;4.06;100.00;96336.41;4938065;28;20102;-35
2024/01/06 08:18:24;;;;;;;2.50;0.98;;;4.80;99.90;;;4.10;100.00;96345.84;4935276;28;20035;-36
2024/01/06 08:20:50;;;;;;;3.13;1.00;;;4.90;99.90;;;4.15;100.00;96350.94;4934509;28;20067;-36
2024/01/06 08:23:18;;;;;;;2.72;0.80;;;4.90;99.90;;;4.09;100.00;96332.81;4937265;28;20027;-36
2024/01/06 08:25:45;;;;;;;2.33;1.05;;;4.90;99.90;;;4.24;100.00;96345.44;4929427;28;20938;-36
2024/01/06 08:28:11;;;;;;;4.22;1.10;;;5.00;99.90;;;4.28;100.00;96351.44;4936482;28;20024;-36
2024/01/06 08:30:37;;;;;;;1.55;1.00;;;5.00;99.90;;;4.31;100.00;96349.59;4934550;28;20039;-36
2024/01/06 08:33:03;;;;;;;2.30;1.02;;;5.00;99.90;;;4.35;100.00;96346.00;4933397;28;20378;-39
2024/01/06 08:35:30;;;;;;;1.92;0.90;;;5.10;99.90;;;4.34;100.00;96340.81;4929832;28;20046;-37
2024/01/06 08:37:56;;;;;;;2.08;0.88;;;5.10;99.90;;;4.43;100.00;96356.19;4936856;28;20036;-37
2024/01/06 08:40:21;;;;;;;2.70;1.00;;;5.20;99.90;;;4.46;100.00;96355.28;4935627;28;20117;-37
2024/01/06 08:42:47;;;;;;;1.88;1.15;;;5.20;99.90;;;4.51;100.00;96363.81;4936298;28;20035;-36
2024/01/06 08:45:13;;;;;;;0.88;0.65;;;5.30;99.90;;;4.56;100.00;96368.00;4940461;28;20500;-37
2024/01/06 08:47:38;;;;;;;3.20;0.98;;;5.30;99.90;;;4.65;100.00;96369.50;4937390;28;20440;-37
2024/01/06 08:50:05;;;;;;;3.40;1.00;;;5.40;99.90;;;4.62;100.00;96346.06;4938574;28;20026;-37
2024/01/06 08:52:31;;;;;;;1.63;0.88;;;5.40;99.90;;;4.67;100.00;96346.78;4940579;28;20050;-37
2024/01/06 08:54:56;;;;;;;2.53;1.10;;;5.50;99.90;;;4.87;100.00;96366.22;4938558;28;20103;-37
2024/01/06 08:57:22;;;;;;;1.27;0.85;;;5.60;99.90;;;4.87;100.00;96369.69;4933518;28;20043;-36
2024/01/06 08:59:48;;;;;;;2.15;0.85;;;5.60;99.90;;;4.96;100.00;96376.38;4935734;28;20039;-37
2024/01/06 09:02:13;;;;;;;4.43;0.90;;;5.70;99.90;;;5.07;100.00;96376.91;4933898;28;20065;-36
2024/01/06 09:04:39;;;;;;;1.13;0.70;;;5.80;99.90;;;5.24;100.00;96371.16;4935607;28;20547;-36
2024/01/06 09:07:05;;;;;;;4.47;0.85;;;5.90;99.90;;;5.21;100.00;96386.09;4937825;28;20451;-39
2024/01/06 09:09:30;;;;;;;0.80;0.55;;;5.90;99.90;;;5.25;100.00;96378.06;4935355;28;20118;-37
2024/01/06 09:11:56;;;;;;;2.20;0.80;;;6.00;99.90;;;5.23;100.00;96374.66;4935711;28;20038;-37
2024/01/06 09:14:22;;;;;;;1.50;0.80;;;6.00;99.90;;;5.31;100.00;96387.47;4935673;28;20504;-37
2024/01/06 09:16:48;;;;;;;0.75;0.75;;;6.00;99.90;;;5.39;100.00;96389.88;4930862;28;20046;-37
2024/01/06 09:19:13;;;;;;;2.38;0.77;;;6.10;99.90;;;5.40;100.00;96387.19;4935410;28;20039;-37
2024/01/06 09:21:39;;;;;;;1.40;0.80;;;6.20;99.90;;;5.53;100.00;96392.88;4933473;28;20046;-37
2024/01/06 09:24:06;;;;;;;3.58;0.80;;;6.20;99.90;;;5.49;100.00;96392.13;4936735;28;20082;-37
2024/01/06 09:26:33;;;;;;;1.27;0.70;;;6.30;99.90;;;5.43;100.00;96387.06;4932468;28;20497;-37
2024/01/06 09:29:00;;;;;;;2.55;0.80;;;6.20;99.90;;;5.43;100.00;96402.78;4934364;28;20031;-36
2024/01/06 09:31:26;;;;;;;2.40;0.80;;;6.20;99.90;;;5.32;100.00;96387.44;4930970;28;20445;-36
2024/01/06 09:33:51;;;;;;;1.13;0.60;;;6.20;99.90;;;5.49;100.00;96406.94;4931673;28;20089;-36
2024/01/06 09:36:17;;;;;;;1.20;0.55;;;6.20;99.90;;;5.49;100.00;96413.03;4935853;28;20031;-36
2024/01/06 09:38:43;;;;;;;1.65;0.55;;;6.20;99.90;;;5.41;100.00;96409.81;4930450;28;20121;-36
2024/01/06 09:41:09;;;;;;;1.20;0.57;;;6.20;99.90;;;5.47;100.00;96414.88;4932887;28;20486;-36
2024/01/06 09:43:35;;;;;;;1.20;0.93;;;6.20;99.90;;;5.34;100.00;96417.00;4932696;28;20484;-36
2024/01/06 09:46:31;;;;;;;1.85;0.80;;;6.20;99.90;;;5.42;100.00;96424.59;4928781;28;20043;-36
2024/01/06 09:48:58;;;;;;;1.95;0.77;;;6.20;99.90;;;5.43;100.00;96428.91;4928777;28;20034;-37
2024/01/06 09:51:25;;;;;;;3.80;1.08;;;6.20;99.90;;;5.42;100.00;96429.84;4932528;28;20031;-37
2024/01/06 09:53:59;;;;;;;2.60;0.77;;;6.20;99.90;;;5.44;100.00;96420.19;4932509;28;20086;-37
2024/01/06 09:56:27;;;;;;;1.00;0.65;;;6.20;99.90;;;5.38;100.00;96419.50;4933637;28;20039;-37
2024/01/06 09:58:53;;;;;;;0.88;0.73;;;6.20;99.90;;;5.44;100.00;96433.25;4936736;28;20081;-37
2024/01/06 10:01:19;;;;;;;2.15;0.82;;;6.20;99.90;;;5.42;100.00;96428.97;4930018;28;20179;-37
2024/01/06 10:03:47;;;;;;;0.60;0.60;;;6.20;99.90;;;5.46;100.00;96422.75;4905343;28;20039;-37
2024/01/06 10:06:16;;;;;;;2.00;0.70;;;6.20;99.90;;;5.61;100.00;96431.84;4927768;28;20035;-37
2024/01/06 10:08:52;;;;;;;1.67;0.90;;;6.30;99.90;;;5.66;100.00;96427.31;4935101;28;20113;-37
2024/01/06 10:11:20;;;;;;;2.70;0.80;;;6.30;99.90;;;5.65;100.00;96429.09;4926941;28;20430;-37
2024/01/06 10:13:50;;;;;;;3.13;1.00;;;6.30;99.90;;;5.51;100.00;96408.63;4935285;28;20031;-37
2024/01/06 10:16:15;;;;;;;1.00;0.90;;;6.40;99.90;;;5.52;100.00;96418.16;4932268;28;20027;-37
2024/01/06 10:18:41;;;;;;;1.40;0.90;;;6.30;99.90;;;5.50;100.00;96417.34;4925515;28;20043;-37
2024/01/06 10:21:07;;;;;;;3.53;1.30;;;6.30;99.90;;;5.47;100.00;96416.59;4930920;28;20482;-37